Time;durP1;ratioP1;P1;durP2;ratioP2;P2;SDS_P1;SDS_P2;PMS_P1;PMS_P2;Temp;Humidity;BMP_temperature;BMP_pressure;BME280_temperature;BME280_humidity;BME280_pressure;Samples;Min_cycle;Max_cycle;Signal;HPM_P1;HPM_P2
2022/06/29 00:02:19;;;;;;;6.32;4.70;;;;;;;17.55;73.66;94287.38;4888825;29;20040;-83
2022/06/29 00:04:48;;;;;;;7.05;4.95;;;;;;;17.54;73.82;94280.41;4888777;29;20037;-82
2022/06/29 00:07:13;;;;;;;8.57;5.05;;;;;;;17.48;74.11;94287.97;4887673;29;20045;-82
2022/06/29 00:09:38;;;;;;;6.00;4.68;;;;;;;17.45;74.39;94294.84;4888930;29;20330;-83
2022/06/29 00:12:04;;;;;;;9.88;5.35;;;;;;;17.49;74.66;94297.63;4888670;29;20037;-82
2022/06/29 00:14:30;;;;;;;10.95;5.15;;;;;;;17.50;74.52;94290.31;4888835;29;20021;-83
2022/06/29 00:16:55;;;;;;;15.70;5.10;;;;;;;17.49;74.37;94284.16;4888718;29;20354;-83
2022/06/29 00:19:20;;;;;;;10.23;4.85;;;;;;;17.48;74.56;94281.78;4888486;29;20045;-82
2022/06/29 00:21:46;;;;;;;8.25;5.05;;;;;;;17.45;74.35;94284.06;4888619;29;20033;-82
2022/06/29 00:24:11;;;;;;;7.35;5.22;;;;;;;17.42;74.67;94282.06;4888578;29;20332;-82
2022/06/29 00:26:37;;;;;;;7.13;5.45;;;;;;;17.42;74.89;94284.75;4888711;29;20081;-82
2022/06/29 00:29:03;;;;;;;14.32;5.55;;;;;;;17.39;75.08;94282.75;4888599;29;20375;-82
2022/06/29 00:31:28;;;;;;;13.13;5.57;;;;;;;17.39;75.23;94280.06;4888514;29;20088;-82
2022/06/29 00:33:54;;;;;;;9.90;7.20;;;;;;;17.35;75.20;94273.78;4888556;29;20036;-81
2022/06/29 00:36:19;;;;;;;12.75;7.70;;;;;;;17.35;75.53;94273.78;4888523;29;20043;-82
2022/06/29 00:38:45;;;;;;;11.48;7.03;;;;;;;17.33;75.70;94281.44;4888221;29;20326;-82
2022/06/29 00:41:10;;;;;;;14.20;6.97;;;;;;;17.31;76.10;94272.91;4890774;29;20028;-83
2022/06/29 00:43:43;;;;;;;11.63;6.50;;;;;;;17.29;76.25;94269.78;4891973;29;20048;-82
2022/06/29 00:46:09;;;;;;;12.77;6.47;;;;;;;17.30;76.32;94270.56;4891888;29;20311;-81
2022/06/29 00:48:36;;;;;;;10.43;6.03;;;;;;;17.30;76.33;94259.78;4891726;29;20032;-81
2022/06/29 00:51:03;;;;;;;19.33;6.88;;;;;;;17.30;76.13;94260.59;4891938;29;20025;-81
2022/06/29 00:53:34;;;;;;;10.35;6.20;;;;;;;17.29;76.06;94261.69;4891688;29;20092;-81
2022/06/29 00:56:02;;;;;;;10.20;5.93;;;;;;;17.26;76.11;94265.09;4891896;29;20025;-81
2022/06/29 00:58:28;;;;;;;10.00;5.97;;;;;;;17.25;76.35;94264.28;4891719;29;20091;-81
2022/06/29 01:01:00;;;;;;;8.32;5.63;;;;;;;17.29;76.18;94263.63;4891921;29;20025;-81
2022/06/29 01:03:26;;;;;;;12.38;5.20;;;;;;;17.31;75.59;94254.06;4891616;29;20346;-81
2022/06/29 01:05:52;;;;;;;7.82;5.13;;;;;;;17.24;75.75;94256.56;4891428;29;20063;-82
2022/06/29 01:08:17;;;;;;;8.27;5.05;;;;;;;17.25;75.71;94258.91;4891398;29;20055;-83
2022/06/29 01:10:43;;;;;;;12.82;5.35;;;;;;;17.24;75.81;94260.06;4891452;29;20029;-82
2022/06/29 01:13:10;;;;;;;10.68;5.35;;;;;;;17.25;76.16;94256.22;4891356;29;20040;-80
2022/06/29 01:15:36;;;;;;;10.48;5.85;;;;;;;17.24;75.95;94251.19;4891372;29;20048;-80
2022/06/29 01:18:02;;;;;;;7.72;5.30;;;;;;;17.20;75.63;94244.94;4891491;29;20032;-81
2022/06/29 01:20:27;;;;;;;12.07;6.80;;;;;;;17.20;75.58;94239.53;4891316;29;20054;-80
2022/06/29 01:22:54;;;;;;;9.27;5.78;;;;;;;17.13;74.97;94237.44;4891255;29;20273;-84
2022/06/29 01:25:20;;;;;;;13.82;6.53;;;;;;;17.10;75.19;94235.44;4891269;29;20025;-82
2022/06/29 01:27:45;;;;;;;13.10;6.53;;;;;;;17.05;75.18;94239.13;4891059;29;20239;-81
2022/06/29 01:30:11;;;;;;;9.07;5.28;;;;;;;17.02;75.57;94239.84;4890982;29;20029;-81
2022/06/29 01:32:40;;;;;;;6.50;5.43;;;;;;;17.02;75.82;94233.69;4891031;29;20065;-82
2022/06/29 01:35:09;;;;;;;9.45;4.68;;;;;;;17.03;76.27;94236.00;4891190;29;20057;-81
2022/06/29 01:37:34;;;;;;;9.77;5.30;;;;;;;17.05;76.23;94249.91;4891171;29;20025;-81
2022/06/29 01:40:00;;;;;;;8.25;4.93;;;;;;;17.07;76.07;94249.56;4891076;29;20032;-81
2022/06/29 01:42:25;;;;;;;7.50;5.03;;;;;;;17.01;76.46;94257.13;4889741;29;20033;-82
2022/06/29 01:44:51;;;;;;;12.68;5.47;;;;;;;17.00;76.08;94258.25;4891179;29;20025;-81
2022/06/29 01:47:16;;;;;;;6.93;4.80;;;;;;;17.04;76.29;94248.38;4890644;29;20146;-83
2022/06/29 01:49:44;;;;;;;7.20;4.80;;;;;;;17.03;76.17;94251.38;4890906;29;20049;-84
2022/06/29 01:52:10;;;;;;;8.05;5.32;;;;;;;16.98;76.25;94249.75;4889812;29;20262;-83
2022/06/29 01:54:35;;;;;;;7.22;5.22;;;;;;;16.97;76.63;94239.31;4890754;29;20104;-84
2022/06/29 01:57:01;;;;;;;11.43;5.45;;;;;;;17.01;76.55;94238.25;4890649;29;20045;-82
2022/06/29 01:59:26;;;;;;;14.10;5.85;;;;;;;17.02;76.39;94233.69;4890671;29;20053;-81
2022/06/29 02:01:52;;;;;;;9.57;5.80;;;;;;;17.02;76.26;94233.69;4890409;29;20021;-82
2022/06/29 02:04:17;;;;;;;7.90;4.82;;;;;;;17.02;76.15;94231.00;4890524;29;20206;-81
2022/06/29 02:06:43;;;;;;;6.35;4.57;;;;;;;16.97;76.24;94234.69;4890308;29;20043;-81
2022/06/29 02:09:08;;;;;;;8.60;5.80;;;;;;;16.98;76.40;94230.88;4890438;29;20037;-81
2022/06/29 02:11:34;;;;;;;13.15;5.40;;;;;;;16.95;76.65;94228.88;4890619;29;20032;-81
2022/06/29 02:13:59;;;;;;;16.42;5.68;;;;;;;16.97;76.52;94228.53;4890208;29;20028;-81
2022/06/29 02:16:25;;;;;;;11.23;5.65;;;;;;;16.96;76.53;94222.38;4890351;29;20024;-81
2022/06/29 02:18:50;;;;;;;12.10;5.03;;;;;;;16.97;76.63;94223.16;4890630;29;20028;-83
2022/06/29 02:21:16;;;;;;;19.33;6.43;;;;;;;16.97;76.72;94218.53;4891221;29;20218;-83
2022/06/29 02:23:41;;;;;;;9.25;4.63;;;;;;;16.98;76.40;94217.44;4890899;29;20354;-82
2022/06/29 02:26:10;;;;;;;8.57;4.72;;;;;;;16.95;76.18;94210.03;4890561;29;20032;-83
2022/06/29 02:28:38;;;;;;;9.10;5.18;;;;;;;16.93;76.07;94217.66;4890956;29;20101;-81
2022/06/29 02:36:38;;;;;;;8.25;4.65;;;;;;;16.81;76.16;94206.94;4890619;29;20035;-81
2022/06/29 02:39:12;;;;;;;10.05;4.40;;;;;;;16.83;76.26;94204.69;4890580;29;20126;-82
2022/06/29 02:41:37;;;;;;;5.40;3.50;;;;;;;16.84;76.41;94201.66;4890186;29;20068;-80
2022/06/29 02:44:03;;;;;;;13.45;5.45;;;;;;;16.83;75.91;94200.13;4889999;29;20033;-83
2022/06/29 02:46:29;;;;;;;9.02;4.28;;;;;;;16.82;76.47;94195.06;4890180;29;20039;-83
2022/06/29 02:48:55;;;;;;;8.38;4.25;;;;;;;16.81;76.11;94201.56;4890704;29;20029;-85
2022/06/29 02:51:20;;;;;;;7.25;3.80;;;;;;;16.76;75.71;94201.81;4890744;29;20025;-84
2022/06/29 02:53:46;;;;;;;8.30;4.15;;;;;;;16.72;75.48;94192.84;4890388;29;20363;-84
2022/06/29 02:56:12;;;;;;;13.15;5.00;;;;;;;16.73;75.35;94197.09;4890093;29;20045;-82
2022/06/29 02:58:37;;;;;;;13.07;5.68;;;;;;;16.67;75.37;94196.56;4888524;29;20073;-80
2022/06/29 03:01:03;;;;;;;14.07;5.68;;;;;;;16.61;75.98;94198.72;4890519;29;20226;-81
2022/06/29 03:03:28;;;;;;;13.63;5.85;;;;;;;16.54;76.75;94203.91;4889373;29;20379;-81
2022/06/29 03:05:54;;;;;;;11.85;6.78;;;;;;;16.48;77.29;94199.88;4890052;29;20060;-81
2022/06/29 03:08:20;;;;;;;9.43;6.60;;;;;;;16.43;77.68;94206.28;4890165;29;20032;-81
2022/06/29 03:10:45;;;;;;;10.00;7.10;;;;;;;16.43;77.69;94200.13;4889907;29;20044;-82
2022/06/29 03:13:11;;;;;;;11.43;6.70;;;;;;;16.44;77.61;94194.44;4890124;29;20021;-81
2022/06/29 03:15:40;;;;;;;9.73;6.22;;;;;;;16.44;77.92;94205.19;4890091;29;20096;-82
2022/06/29 03:18:06;;;;;;;10.60;6.60;;;;;;;16.46;77.87;94207.50;4889186;29;20025;-83
2022/06/29 03:20:32;;;;;;;10.93;7.15;;;;;;;16.47;78.07;94206.41;4889426;29;20304;-82
2022/06/29 03:22:58;;;;;;;15.55;6.47;;;;;;;16.39;78.17;94197.34;4890035;29;20105;-83
2022/06/29 03:25:23;;;;;;;9.35;5.97;;;;;;;16.45;78.01;94205.97;4889796;29;20223;-82
2022/06/29 03:27:49;;;;;;;14.30;6.63;;;;;;;16.45;78.25;94204.03;4888155;29;20216;-80
2022/06/29 03:30:14;;;;;;;10.30;6.03;;;;;;;16.45;78.35;94200.59;4889109;29;20025;-81
2022/06/29 03:32:40;;;;;;;9.82;6.95;;;;;;;16.49;78.26;94200.69;4889033;29;20016;-81
2022/06/29 03:35:06;;;;;;;14.13;7.65;;;;;;;16.56;78.59;94190.09;4889126;29;20268;-81
2022/06/29 03:37:32;;;;;;;13.57;8.10;;;;;;;16.59;78.96;94200.19;4888858;29;20064;-81
2022/06/29 03:39:57;;;;;;;11.90;8.45;;;;;;;16.58;79.37;94202.09;4888875;29;20040;-81
2022/06/29 03:42:23;;;;;;;15.73;9.02;;;;;;;16.61;79.84;94206.81;4888952;29;20036;-81
2022/06/29 03:44:48;;;;;;;13.73;8.43;;;;;;;16.62;79.77;94204.88;4889039;29;20029;-79
2022/06/29 03:47:14;;;;;;;12.70;9.88;;;;;;;16.63;80.30;94204.56;4888918;29;20316;-79
2022/06/29 03:49:40;;;;;;;14.63;8.95;;;;;;;16.67;80.25;94201.97;4888845;29;20307;-80
2022/06/29 03:52:05;;;;;;;12.23;9.27;;;;;;;16.74;79.91;94199.44;4888887;29;20025;-80
2022/06/29 03:54:31;;;;;;;18.45;10.45;;;;;;;16.77;79.72;94196.09;4888787;29;20029;-83
2022/06/29 03:56:57;;;;;;;14.93;9.82;;;;;;;16.81;79.52;94186.22;4888702;29;20072;-83
2022/06/29 03:59:22;;;;;;;24.67;11.75;;;;;;;16.87;79.83;94186.72;4888720;29;20033;-83
2022/06/29 04:01:48;;;;;;;13.55;9.15;;;;;;;16.96;79.89;94203.53;4888522;29;20063;-82
2022/06/29 04:04:14;;;;;;;22.90;10.13;;;;;;;17.00;79.18;94193.63;4887721;29;20033;-82
2022/06/29 04:06:40;;;;;;;16.33;10.40;;;;;;;17.07;78.96;94198.41;4888528;29;20354;-81
2022/06/29 04:09:05;;;;;;;17.75;10.15;;;;;;;17.11;78.81;94183.13;4888789;29;20304;-81
2022/06/29 04:11:49;;;;;;;21.92;9.48;;;;;;;17.18;78.95;94182.53;4888546;29;20040;-81
2022/06/29 04:14:27;;;;;;;18.75;9.43;;;;;;;17.27;78.35;94183.13;4887647;29;20021;-80
2022/06/29 04:16:54;;;;;;;18.13;9.18;;;;;;;17.31;77.85;94181.31;4892215;29;20021;-80
2022/06/29 04:19:20;;;;;;;15.32;9.68;;;;;;;17.31;77.44;94186.69;4892468;29;20384;-80
2022/06/29 04:21:47;;;;;;;17.45;10.52;;;;;;;17.34;77.64;94180.63;4892107;29;20053;-81
2022/06/29 04:24:13;;;;;;;18.67;9.77;;;;;;;17.36;77.99;94172.19;4892308;29;20040;-81
2022/06/29 04:26:39;;;;;;;24.00;10.15;;;;;;;17.35;77.80;94178.72;4892466;29;20028;-81
2022/06/29 04:29:04;;;;;;;16.92;10.07;;;;;;;17.34;78.10;94175.25;4892425;29;20048;-81
2022/06/29 04:31:30;;;;;;;15.45;10.30;;;;;;;17.41;78.31;94178.09;4892218;29;20020;-84
2022/06/29 04:33:55;;;;;;;18.33;10.23;;;;;;;17.44;78.69;94179.31;4892026;29;20020;-83
2022/06/29 04:36:21;;;;;;;13.98;11.32;;;;;;;17.52;78.81;94170.25;4892133;29;20021;-83
2022/06/29 04:38:46;;;;;;;21.90;10.90;;;;;;;17.61;79.37;94170.88;4891687;29;20021;-83
2022/06/29 04:41:12;;;;;;;19.95;11.05;;;;;;;17.71;79.15;94172.25;4892025;29;20044;-83
2022/06/29 04:43:38;;;;;;;25.10;12.55;;;;;;;17.80;78.05;94163.97;4891966;29;20101;-82
2022/06/29 04:46:22;;;;;;;18.65;11.77;;;;;;;17.90;78.36;94157.28;4891810;29;20033;-83
2022/06/29 04:48:55;;;;;;;18.10;11.43;;;;;;;18.03;78.17;94161.41;4891797;29;20035;-81
2022/06/29 04:51:21;;;;;;;19.05;11.23;;;;;;;18.11;76.53;94170.44;4891884;29;20040;-82
2022/06/29 04:53:47;;;;;;;21.50;11.95;;;;;;;18.09;77.52;94170.78;4891851;29;20032;-82
2022/06/29 04:56:14;;;;;;;17.60;11.52;;;;;;;17.97;77.43;94182.50;4891705;29;20416;-82
2022/06/29 04:58:40;;;;;;;24.13;12.60;;;;;;;17.88;77.80;94186.53;4891695;29;20020;-82
2022/06/29 05:01:05;;;;;;;20.80;12.55;;;;;;;17.80;78.32;94190.94;4891845;29;20028;-82
2022/06/29 05:03:31;;;;;;;22.83;13.82;;;;;;;17.72;78.95;94200.00;4890239;29;20084;-80
2022/06/29 05:05:57;;;;;;;20.40;12.43;;;;;;;17.71;80.31;94191.13;4892077;29;20036;-82
2022/06/29 05:08:22;;;;;;;20.30;13.25;;;;;;;17.74;79.94;94209.28;4892060;29;20077;-82
2022/06/29 05:10:48;;;;;;;24.08;13.45;;;;;;;17.80;79.41;94202.50;4891457;29;20222;-81
2022/06/29 05:13:13;;;;;;;17.83;13.23;;;;;;;17.86;78.79;94196.88;4891615;29;20021;-82
2022/06/29 05:15:38;;;;;;;19.60;12.98;;;;;;;17.96;78.88;94196.34;4891481;29;20048;-83
2022/06/29 05:18:04;;;;;;;25.27;13.98;;;;;;;18.02;78.76;94200.31;4891004;29;20227;-81
2022/06/29 05:20:30;;;;;;;20.63;13.30;;;;;;;18.14;79.00;94197.50;4891181;29;20075;-83
2022/06/29 05:22:55;;;;;;;18.75;13.98;;;;;;;18.30;78.60;94196.66;4891029;29;20092;-80
2022/06/29 05:25:21;;;;;;;22.38;14.13;;;;;;;18.38;78.34;94193.00;4891132;29;20055;-80
2022/06/29 05:27:47;;;;;;;24.02;14.60;;;;;;;18.49;77.49;94183.19;4890804;29;20091;-80
2022/06/29 05:30:14;;;;;;;24.23;15.00;;;;;;;18.51;77.20;94186.31;4891173;29;20052;-79
2022/06/29 05:32:39;;;;;;;25.70;15.60;;;;;;;18.55;77.36;94186.41;4891081;29;20261;-77
2022/06/29 05:35:06;;;;;;;24.58;14.00;;;;;;;18.51;76.20;94185.53;4891387;29;20033;-77
2022/06/29 05:37:32;;;;;;;25.75;15.00;;;;;;;18.51;75.66;94191.72;4891036;29;20223;-78
2022/06/29 05:39:58;;;;;;;24.17;14.63;;;;;;;18.51;76.34;94186.31;4891173;29;20025;-79
2022/06/29 05:42:23;;;;;;;23.08;15.40;;;;;;;18.53;76.44;94197.53;4890954;29;20029;-76
2022/06/29 05:44:49;;;;;;;24.95;14.77;;;;;;;18.50;77.46;94197.47;4890528;29;20036;-76
2022/06/29 05:47:14;;;;;;;31.27;15.55;;;;;;;18.57;77.00;94197.63;4890897;29;20052;-76
2022/06/29 05:49:40;;;;;;;24.40;12.93;;;;;;;18.62;77.24;94197.31;4890927;29;20025;-77
2022/06/29 05:52:06;;;;;;;20.08;13.30;;;;;;;18.72;76.23;94206.78;4890973;29;20096;-77
2022/06/29 05:54:33;;;;;;;20.02;13.23;;;;;;;18.75;75.67;94201.44;4890668;29;20204;-77
2022/06/29 05:56:58;;;;;;;22.10;13.35;;;;;;;18.86;75.32;94214.41;4890490;29;20029;-77
2022/06/29 05:59:24;;;;;;;16.27;12.40;;;;;;;18.84;75.11;94223.63;4890405;29;20200;-78
2022/06/29 06:01:49;;;;;;;19.67;13.20;;;;;;;18.86;74.95;94225.22;4889655;29;20040;-78
2022/06/29 06:04:14;;;;;;;31.92;12.73;;;;;;;18.94;76.02;94219.56;4890554;29;20056;-78
2022/06/29 06:06:40;;;;;;;21.65;12.88;;;;;;;19.01;74.99;94225.13;4890439;29;20052;-78
2022/06/29 06:09:06;;;;;;;20.45;13.38;;;;;;;19.10;75.55;94216.78;4890755;29;20029;-78
2022/06/29 06:11:31;;;;;;;20.25;12.60;;;;;;;19.20;75.24;94216.19;4890397;29;20268;-78
2022/06/29 06:13:57;;;;;;;25.75;13.00;;;;;;;19.34;74.74;94223.78;4890276;29;20021;-79
2022/06/29 06:16:22;;;;;;;22.25;13.02;;;;;;;19.49;74.83;94215.91;4890469;29;20084;-79
2022/06/29 06:18:47;;;;;;;18.83;12.38;;;;;;;19.65;73.33;94222.75;4890299;29;20095;-79
2022/06/29 06:21:13;;;;;;;17.52;11.93;;;;;;;19.69;71.62;94214.69;4890276;29;20029;-78
2022/06/29 06:23:39;;;;;;;18.40;11.27;;;;;;;19.76;71.50;94211.34;4890218;29;20029;-78
2022/06/29 06:26:04;;;;;;;20.85;12.23;;;;;;;19.79;71.98;94205.22;4890273;29;20024;-76
2022/06/29 06:28:30;;;;;;;20.15;11.88;;;;;;;19.94;71.83;94208.91;4889579;29;20231;-78
2022/06/29 06:30:55;;;;;;;21.27;11.40;;;;;;;20.04;69.94;94202.88;4889749;29;20375;-75
2022/06/29 06:33:22;;;;;;;17.90;12.05;;;;;;;20.12;68.93;94209.19;4889945;29;20029;-77
2022/06/29 06:35:48;;;;;;;19.92;11.38;;;;;;;20.15;68.29;94209.25;4889849;29;20032;-77
2022/06/29 06:38:58;;;;;;;20.20;12.35;;;;;;;20.11;68.96;94203.00;4889172;29;20048;-77
2022/06/29 06:41:25;;;;;;;26.77;10.93;;;;;;;20.17;69.46;94198.84;4867352;29;20093;-77
2022/06/29 06:43:56;;;;;;;26.58;12.40;;;;;;;20.28;68.77;94198.19;4867984;29;20067;-77
2022/06/29 06:46:22;;;;;;;17.17;11.93;;;;;;;20.21;68.96;94191.53;4880042;29;20076;-77
2022/06/29 06:48:50;;;;;;;18.80;12.70;;;;;;;20.22;68.34;94198.50;4889412;29;20036;-76
2022/06/29 06:51:16;;;;;;;29.92;14.40;;;;;;;20.11;69.30;94205.72;4889693;29;20025;-78
2022/06/29 06:53:41;;;;;;;18.48;13.13;;;;;;;20.13;69.69;94208.84;4889629;29;20028;-78
2022/06/29 06:56:07;;;;;;;23.17;12.77;;;;;;;20.19;69.01;94198.44;4889533;29;20025;-78
2022/06/29 06:58:35;;;;;;;23.20;11.70;;;;;;;20.27;67.87;94199.34;4889509;29;20027;-77
2022/06/29 07:01:04;;;;;;;24.50;12.75;;;;;;;20.26;68.06;94195.09;4889578;29;20085;-78
2022/06/29 07:03:36;;;;;;;26.77;11.77;;;;;;;20.36;67.73;94184.38;4889315;29;20100;-78
2022/06/29 07:06:04;;;;;;;19.37;11.33;;;;;;;20.48;67.33;94179.91;4889210;29;20041;-79
2022/06/29 07:08:33;;;;;;;19.33;11.82;;;;;;;20.68;67.51;94183.25;4889491;29;20273;-78
2022/06/29 07:11:00;;;;;;;20.25;10.15;;;;;;;20.73;65.96;94182.94;4889157;29;20342;-78
2022/06/29 07:13:26;;;;;;;15.40;10.32;;;;;;;20.89;63.66;94186.19;4889119;29;20025;-78
2022/06/29 07:15:52;;;;;;;24.00;9.68;;;;;;;21.04;64.09;94190.63;4889265;29;20264;-78
2022/06/29 07:18:17;;;;;;;12.82;8.60;;;;;;;21.11;61.56;94191.88;4889249;29;20033;-79
2022/06/29 07:20:43;;;;;;;17.17;9.77;;;;;;;21.12;63.48;94190.69;4889133;29;20029;-79
2022/06/29 07:23:08;;;;;;;14.77;9.30;;;;;;;21.19;63.69;94193.50;4889209;29;20029;-80
2022/06/29 07:25:34;;;;;;;22.23;9.93;;;;;;;21.24;65.41;94190.44;4889032;29;20097;-75
2022/06/29 07:28:00;;;;;;;17.10;9.45;;;;;;;21.32;64.26;94185.84;4889079;29;20083;-77
2022/06/29 07:30:25;;;;;;;17.58;8.25;;;;;;;21.34;62.71;94184.31;4888952;29;20272;-77
2022/06/29 07:32:50;;;;;;;16.38;6.60;;;;;;;21.49;60.67;94187.97;4888893;29;20017;-78
2022/06/29 07:35:16;;;;;;;16.67;5.45;;;;;;;21.54;56.86;94192.28;4888855;29;20315;-77
2022/06/29 07:37:42;;;;;;;11.95;6.43;;;;;;;21.60;57.81;94188.06;4889115;29;20033;-78
2022/06/29 07:40:08;;;;;;;11.80;7.25;;;;;;;21.74;60.00;94195.56;4889037;29;20231;-79
2022/06/29 07:42:35;;;;;;;16.42;9.20;;;;;;;21.75;60.46;94180.81;4888990;29;20335;-78
2022/06/29 07:45:02;;;;;;;20.13;8.63;;;;;;;21.76;61.11;94188.59;4888738;29;20328;-78
2022/06/29 07:47:27;;;;;;;15.23;8.13;;;;;;;21.73;60.57;94183.91;4888704;29;20025;-80
2022/06/29 07:49:53;;;;;;;18.15;8.95;;;;;;;21.87;60.82;94164.22;4888566;29;20099;-79
2022/06/29 07:52:19;;;;;;;17.60;8.52;;;;;;;21.96;61.55;94180.19;4888826;29;20027;-79
2022/06/29 07:54:44;;;;;;;18.58;10.32;;;;;;;22.05;61.73;94172.50;4888705;29;20327;-79
2022/06/29 07:57:10;;;;;;;22.52;10.48;;;;;;;22.11;62.23;94173.69;4888691;29;20036;-78
2022/06/29 07:59:35;;;;;;;26.05;9.07;;;;;;;22.17;63.68;94174.91;4888929;29;20718;-79
2022/06/29 08:02:00;;;;;;;18.05;8.40;;;;;;;22.29;62.87;94173.03;4888657;29;20073;-79
2022/06/29 08:04:26;;;;;;;12.38;8.55;;;;;;;22.43;62.24;94170.41;4888633;29;20039;-77
2022/06/29 08:06:51;;;;;;;15.82;9.20;;;;;;;22.53;61.48;94168.88;4888362;29;20048;-79
2022/06/29 08:09:17;;;;;;;18.45;8.85;;;;;;;22.66;60.59;94174.78;4888539;29;20025;-79
2022/06/29 08:11:42;;;;;;;14.57;9.40;;;;;;;22.70;60.83;94175.56;4888555;29;20278;-78
2022/06/29 08:14:07;;;;;;;14.05;8.45;;;;;;;22.78;59.42;94174.44;4888608;29;20033;-78
2022/06/29 08:16:33;;;;;;;18.73;10.13;;;;;;;22.84;60.12;94181.06;4888691;29;20104;-77
2022/06/29 08:18:58;;;;;;;11.15;8.15;;;;;;;22.95;60.11;94168.25;4888453;29;20032;-77
2022/06/29 08:21:24;;;;;;;15.77;8.68;;;;;;;23.06;61.18;94168.34;4888512;29;20315;-77
2022/06/29 08:23:49;;;;;;;16.30;9.20;;;;;;;23.15;60.50;94176.13;4888524;29;20033;-77
2022/06/29 08:26:15;;;;;;;20.48;8.57;;;;;;;23.10;61.29;94177.28;4888425;29;20028;-78
2022/06/29 08:28:40;;;;;;;13.43;8.55;;;;;;;23.19;59.31;94177.66;4887375;29;20037;-78
2022/06/29 08:31:06;;;;;;;12.63;7.18;;;;;;;23.29;57.35;94186.25;4888561;29;20118;-78
2022/06/29 08:33:31;;;;;;;10.55;6.60;;;;;;;23.32;57.68;94175.34;4888638;29;20238;-77
2022/06/29 08:35:57;;;;;;;14.88;7.07;;;;;;;23.44;57.55;94174.97;4888306;29;20275;-78
2022/06/29 08:38:22;;;;;;;12.52;7.03;;;;;;;23.60;56.99;94171.09;4888244;29;20100;-78
2022/06/29 08:40:48;;;;;;;13.02;7.50;;;;;;;23.69;54.75;94179.66;4888485;29;20029;-79
2022/06/29 08:43:16;;;;;;;12.73;5.90;;;;;;;23.88;57.13;94170.34;4888462;29;20290;-79
2022/06/29 08:45:44;;;;;;;10.82;5.57;;;;;;;23.95;52.42;94164.88;4888311;29;20082;-78
2022/06/29 08:48:11;;;;;;;12.63;5.68;;;;;;;24.05;52.42;94166.03;4888352;29;20025;-77
2022/06/29 08:50:38;;;;;;;14.75;5.45;;;;;;;24.14;50.32;94174.59;4888404;29;20025;-78
2022/06/29 08:53:06;;;;;;;8.30;5.18;;;;;;;24.25;52.38;94179.25;4888329;29;20077;-79
2022/06/29 08:55:36;;;;;;;11.15;5.32;;;;;;;24.32;51.19;94179.22;4888164;29;20036;-79
2022/06/29 08:58:02;;;;;;;22.05;5.72;;;;;;;24.43;51.45;94169.84;4888071;29;20033;-80
2022/06/29 09:00:29;;;;;;;13.00;4.20;;;;;;;24.58;49.41;94176.03;4888241;29;20037;-78
2022/06/29 09:02:55;;;;;;;6.10;4.05;;;;;;;24.73;45.64;94165.09;4891336;29;20097;-78
2022/06/29 09:05:20;;;;;;;4.80;3.50;;;;;;;24.88;47.64;94171.25;4891222;29;20032;-77
2022/06/29 09:07:45;;;;;;;9.95;4.63;;;;;;;24.94;47.37;94164.22;4891374;29;20069;-77
2022/06/29 09:10:17;;;;;;;5.13;3.55;;;;;;;25.01;46.16;94164.97;4891487;29;20036;-79
2022/06/29 09:12:48;;;;;;;7.97;4.30;;;;;;;25.15;46.67;94166.81;4891356;29;20024;-76
2022/06/29 09:15:13;;;;;;;6.38;3.67;;;;;;;25.27;46.35;94165.59;4891449;29;20282;-78
2022/06/29 09:17:39;;;;;;;7.57;3.58;;;;;;;25.33;44.79;94166.72;4891314;29;20036;-79
2022/06/29 09:20:06;;;;;;;6.35;3.25;;;;;;;25.38;43.72;94162.81;4891430;29;20109;-81
2022/06/29 09:22:32;;;;;;;5.38;2.95;;;;;;;25.47;43.32;94162.38;4891134;29;20327;-80
2022/06/29 09:24:57;;;;;;;8.60;3.55;;;;;;;25.53;44.42;94164.25;4891224;29;20073;-80
2022/06/29 09:27:25;;;;;;;17.67;3.90;;;;;;;25.62;45.89;94164.59;4891049;29;20099;-79
2022/06/29 09:29:50;;;;;;;7.25;4.13;;;;;;;25.62;45.16;94174.72;4891162;29;20025;-79
2022/06/29 09:32:18;;;;;;;10.00;4.85;;;;;;;25.71;44.97;94155.94;4891223;29;20203;-80
2022/06/29 09:34:45;;;;;;;11.13;3.85;;;;;;;25.87;45.14;94174.53;4891036;29;20032;-80
2022/06/29 09:37:22;;;;;;;12.85;3.90;;;;;;;25.89;42.53;94172.16;4891024;29;20060;-81
2022/06/29 09:39:50;;;;;;;8.63;4.93;;;;;;;25.92;46.35;94171.38;4890948;29;20025;-81
2022/06/29 09:42:27;;;;;;;10.13;3.63;;;;;;;26.00;46.08;94169.38;4890814;29;20048;-81
2022/06/29 09:44:53;;;;;;;19.55;4.40;;;;;;;26.07;45.14;94169.28;4889771;29;20025;-82
2022/06/29 09:47:20;;;;;;;13.30;4.05;;;;;;;25.99;44.91;94171.31;4889778;29;20110;-83
2022/06/29 09:49:54;;;;;;;10.30;4.47;;;;;;;26.12;43.27;94168.84;4890788;29;20029;-80
2022/06/29 09:52:20;;;;;;;11.00;4.68;;;;;;;26.22;43.35;94164.47;4889533;29;20231;-81
2022/06/29 09:54:51;;;;;;;9.65;4.65;;;;;;;26.34;45.22;94168.66;4890582;29;20048;-81
2022/06/29 09:57:19;;;;;;;16.05;4.30;;;;;;;26.50;44.51;94157.94;4890811;29;20096;-81
2022/06/29 10:02:36;;;;;;;9.98;4.22;;;;;;;26.48;40.88;94157.56;4890522;29;20120;-80
2022/06/29 10:05:04;;;;;;;11.32;5.68;;;;;;;26.51;41.31;94148.53;4890304;29;20100;-81
2022/06/29 10:07:31;;;;;;;8.50;3.80;;;;;;;26.57;42.49;94149.66;4890060;29;20044;-80
2022/06/29 10:09:58;;;;;;;8.30;3.58;;;;;;;26.73;41.85;94151.06;4890528;29;20125;-80
2022/06/29 10:15:36;;;;;;;5.28;3.10;;;;;;;27.07;41.36;94155.69;4890305;29;20031;-80
2022/06/29 10:18:52;;;;;;;14.80;3.95;;;;;;;27.18;42.55;94151.63;4890220;29;20028;-80
2022/06/29 10:21:29;;;;;;;11.05;4.10;;;;;;;27.28;44.71;94146.44;4881387;29;20037;-80
2022/06/29 10:23:56;;;;;;;10.70;3.33;;;;;;;27.37;40.49;94150.19;4890076;29;20040;-80
2022/06/29 10:26:37;;;;;;;6.18;3.67;;;;;;;27.49;38.73;94145.34;4888841;29;20072;-80
2022/06/29 10:29:05;;;;;;;10.63;2.80;;;;;;;27.58;39.89;94137.38;4890299;29;20077;-80
2022/06/29 10:31:50;;;;;;;10.23;3.25;;;;;;;27.69;37.82;94142.69;4889927;29;20037;-81
2022/06/29 10:36:59;;;;;;;4.50;2.95;;;;;;;27.91;37.33;94132.94;4890246;29;20096;-79
2022/06/29 10:39:25;;;;;;;9.38;3.03;;;;;;;28.01;36.16;94139.44;4889726;29;20108;-78
2022/06/29 10:44:54;;;;;;;11.40;3.35;;;;;;;28.22;35.89;94132.78;4889592;29;20056;-79
2022/06/29 10:47:23;;;;;;;7.00;3.33;;;;;;;28.29;35.72;94124.44;4889359;29;20029;-78
2022/06/29 10:49:49;;;;;;;7.60;2.55;;;;;;;28.26;35.72;94128.00;4889529;29;20032;-79
2022/06/29 10:52:15;;;;;;;7.60;3.03;;;;;;;28.34;36.34;94125.91;4889313;29;20085;-77
2022/06/29 10:54:40;;;;;;;6.40;2.90;;;;;;;28.47;36.94;94118.59;4889513;29;20370;-80
2022/06/29 10:57:06;;;;;;;7.65;3.00;;;;;;;28.59;35.10;94125.44;4889447;29;20024;-78
2022/06/29 10:59:34;;;;;;;8.38;2.70;;;;;;;28.69;33.45;94120.94;4889202;29;20031;-79
2022/06/29 11:02:13;;;;;;;7.20;2.75;;;;;;;28.84;33.48;94130.41;4889249;29;20032;-78
2022/06/29 11:04:40;;;;;;;5.15;3.13;;;;;;;28.94;33.26;94121.19;4889224;29;20315;-78
2022/06/29 11:12:55;;;;;;;10.48;3.30;;;;;;;28.97;34.82;94122.31;4888918;29;20290;-77
2022/06/29 11:15:47;;;;;;;6.13;3.15;;;;;;;29.06;34.74;94116.22;4889181;29;20029;-77
2022/06/29 11:18:15;;;;;;;2.97;2.38;;;;;;;28.96;32.35;94113.31;4889165;29;20033;-80
2022/06/29 11:20:42;;;;;;;8.52;3.00;;;;;;;29.04;33.13;94104.91;4889361;29;20025;-78
2022/06/29 11:23:15;;;;;;;8.75;2.60;;;;;;;29.10;32.18;94098.47;4888947;29;20092;-78
2022/06/29 11:25:47;;;;;;;8.88;2.60;;;;;;;29.05;32.69;94090.00;4888827;29;20069;-79
2022/06/29 11:28:25;;;;;;;12.38;3.15;;;;;;;29.08;33.34;94089.91;4889071;29;20029;-77
2022/06/29 11:31:04;;;;;;;5.55;2.72;;;;;;;28.83;31.70;94090.47;4889010;29;20028;-78
2022/06/29 11:33:32;;;;;;;6.03;2.67;;;;;;;28.84;33.01;94092.00;4887803;29;20328;-81
2022/06/29 11:36:13;;;;;;;7.03;2.53;;;;;;;29.04;33.97;94077.47;4888818;29;20104;-78
2022/06/29 11:38:40;;;;;;;5.22;2.83;;;;;;;29.24;32.85;94083.69;4888742;29;20029;-78
2022/06/29 11:44:31;;;;;;;8.90;2.38;;;;;;;29.71;31.57;94075.13;4888693;29;20414;-79
2022/06/29 11:46:57;;;;;;;5.88;2.30;;;;;;;29.90;29.06;94084.47;4888695;29;20063;-79
2022/06/29 11:49:42;;;;;;;5.75;2.00;;;;;;;30.03;26.60;94073.53;4888503;29;20043;-78
2022/06/29 11:52:10;;;;;;;9.60;2.47;;;;;;;30.04;27.74;94075.06;4888783;29;20016;-79